Time;durP1;ratioP1;P1;durP2;ratioP2;P2;SDS_P1;SDS_P2;PMS_P1;PMS_P2;Temp;Humidity;BMP_temperature;BMP_pressure;BME280_temperature;BME280_humidity;BME280_pressure;Samples;Min_cycle;Max_cycle;Signal;HPM_P1;HPM_P2
2021/04/06 00:01:53;;;;;;;7.55;5.35;;;;;;;14.68;63.31;100539.41;143755;601;47010;-76
2021/04/06 00:04:23;;;;;;;8.38;5.55;;;;;;;14.66;64.13;100533.25;143751;572;46020;-74
2021/04/06 00:06:58;;;;;;;10.52;5.22;;;;;;;14.62;63.78;100531.38;143752;605;47010;-74
2021/04/06 00:09:29;;;;;;;10.88;5.55;;;;;;;14.65;63.26;100521.91;143754;574;46018;-74
2021/04/06 00:12:02;;;;;;;42.72;7.65;;;;;;;14.64;62.62;100517.56;143753;588;46020;-74
2021/04/06 00:14:31;;;;;;;19.05;6.15;;;;;;;14.58;63.10;100517.34;143751;602;48023;-74
2021/04/06 00:17:01;;;;;;;12.90;6.10;;;;;;;14.66;63.06;100502.81;143752;575;46029;-74
2021/04/06 00:19:32;;;;;;;18.20;6.75;;;;;;;14.74;63.08;100490.00;143754;571;46010;-74
2021/04/06 00:22:01;;;;;;;14.13;5.60;;;;;;;14.70;63.90;100482.91;143755;567;46018;-74
2021/04/06 00:24:32;;;;;;;12.68;5.72;;;;;;;14.72;63.45;100489.94;143755;577;46010;-74
2021/04/06 00:27:41;;;;;;;17.23;6.25;;;;;;;14.72;62.84;100486.44;143751;648;47010;-74
2021/04/06 00:30:14;;;;;;;10.30;5.10;;;;;;;14.72;63.32;100469.06;143753;568;46010;-74
2021/04/06 00:32:43;;;;;;;17.12;5.53;;;;;;;14.71;62.74;100477.75;143757;569;46008;-74
2021/04/06 00:35:12;;;;;;;15.07;5.87;;;;;;;14.76;63.35;100472.66;143751;576;46022;-74
2021/04/06 00:37:48;;;;;;;12.77;6.97;;;;;;;14.78;63.01;100468.38;143751;568;47010;-74
2021/04/06 00:40:16;;;;;;;12.75;6.03;;;;;;;14.71;63.56;100469.03;143753;565;46018;-74
2021/04/06 00:42:45;;;;;;;16.55;6.40;;;;;;;14.70;63.35;100477.69;143755;588;48010;-74
2021/04/06 00:45:16;;;;;;;13.85;5.82;;;;;;;14.69;63.06;100487.25;143751;644;48023;-74
2021/04/06 00:47:44;;;;;;;14.63;6.22;;;;;;;14.74;62.67;100506.53;143754;615;46010;-74
2021/04/06 00:50:15;;;;;;;21.17;6.50;;;;;;;14.79;62.44;100501.44;143754;656;46008;-74
2021/04/06 00:52:46;;;;;;;21.62;6.57;;;;;;;14.78;62.89;100500.56;143756;661;46019;-75
2021/04/06 00:55:20;;;;;;;15.23;6.00;;;;;;;14.77;62.90;100503.16;143754;562;46010;-74
2021/04/06 00:57:47;;;;;;;18.55;5.75;;;;;;;14.65;62.24;100508.88;143750;643;46019;-74
2021/04/06 01:00:34;;;;;;;10.63;5.50;;;;;;;14.68;62.35;100501.13;143753;637;46018;-74
2021/04/06 01:03:16;;;;;;;15.02;5.60;;;;;;;14.52;62.01;100504.13;143754;567;46018;-73
2021/04/06 01:06:21;;;;;;;14.85;5.97;;;;;;;14.56;62.59;100503.38;143755;588;46026;-74
2021/04/06 01:08:51;;;;;;;13.02;6.15;;;;;;;14.58;62.64;100498.19;143755;580;46008;-74
2021/04/06 01:11:18;;;;;;;11.43;5.93;;;;;;;14.57;62.56;100496.41;143753;656;47003;-74
2021/04/06 01:13:46;;;;;;;14.38;6.00;;;;;;;14.60;62.40;100496.50;143757;589;47011;-74
2021/04/06 01:16:13;;;;;;;13.55;5.97;;;;;;;14.61;62.12;100486.12;143753;613;46010;-74
2021/04/06 01:18:40;;;;;;;17.25;6.45;;;;;;;14.52;62.72;100486.72;143752;588;47010;-74
2021/04/06 01:21:10;;;;;;;18.42;6.75;;;;;;;14.48;62.51;100468.28;143754;581;46019;-74
2021/04/06 01:23:38;;;;;;;11.40;5.68;;;;;;;14.51;63.01;100460.56;143751;643;50010;-74
2021/04/06 01:26:10;;;;;;;8.18;5.40;;;;;;;14.48;62.45;100460.44;143754;596;46018;-74
2021/04/06 01:28:38;;;;;;;10.68;5.50;;;;;;;14.54;62.54;100456.34;143746;635;47011;-74
2021/04/06 01:31:07;;;;;;;18.00;5.75;;;;;;;14.51;63.09;100457.97;143755;641;46010;-74
2021/04/06 01:33:34;;;;;;;16.50;6.25;;;;;;;14.62;63.26;100472.25;143755;570;46018;-75
2021/04/06 01:36:05;;;;;;;14.85;5.95;;;;;;;14.54;63.59;100463.28;143754;578;46011;-74
2021/04/06 01:38:33;;;;;;;11.70;6.15;;;;;;;14.48;63.64;100461.31;143750;615;46018;-74
2021/04/06 01:41:01;;;;;;;11.80;6.70;;;;;;;14.44;62.59;100475.13;143753;571;46010;-74
2021/04/06 01:43:32;;;;;;;16.35;6.43;;;;;;;14.39;62.57;100471.50;143756;602;46016;-74
2021/04/06 01:46:18;;;;;;;16.10;6.07;;;;;;;14.25;62.40;100463.22;143753;591;46022;-74
2021/04/06 01:48:47;;;;;;;11.80;5.62;;;;;;;14.28;63.04;100458.09;143753;665;46018;-74
2021/04/06 01:51:20;;;;;;;23.42;6.10;;;;;;;14.27;62.42;100455.47;143753;562;46019;-74
2021/04/06 01:53:47;;;;;;;16.70;5.43;;;;;;;14.29;63.51;100448.56;143753;600;48010;-74
2021/04/06 01:56:16;;;;;;;15.82;5.22;;;;;;;14.31;62.06;100446.87;143754;590;46018;-74
2021/04/06 01:58:49;;;;;;;16.52;5.82;;;;;;;14.36;62.61;100436.59;143752;607;46019;-74
2021/04/06 02:01:22;;;;;;;17.45;5.47;;;;;;;14.36;62.15;100432.28;143751;647;46012;-73
2021/04/06 02:03:55;;;;;;;14.10;5.82;;;;;;;14.32;61.93;100433.87;143754;571;46018;-76
2021/04/06 02:06:26;;;;;;;12.27;5.45;;;;;;;14.37;62.37;100435.78;143752;662;46019;-74
2021/04/06 02:08:54;;;;;;;15.30;5.75;;;;;;;14.33;62.43;100422.63;143752;579;47010;-73
2021/04/06 02:11:30;;;;;;;13.15;5.47;;;;;;;14.34;62.00;100418.28;143756;570;46010;-74
2021/04/06 02:14:11;;;;;;;13.38;5.70;;;;;;;14.26;62.06;100424.97;143753;570;49010;-74
2021/04/06 02:17:04;;;;;;;11.65;5.50;;;;;;;14.26;62.84;100422.38;143752;573;46020;-74
2021/04/06 02:19:39;;;;;;;19.75;6.43;;;;;;;14.13;63.30;100415.88;143753;610;46008;-75
2021/04/06 02:22:13;;;;;;;14.20;6.45;;;;;;;14.17;63.48;100396.00;143753;599;46008;-74
2021/04/06 02:24:50;;;;;;;18.93;7.13;;;;;;;14.15;63.62;100385.53;143755;673;48010;-74
2021/04/06 02:27:29;;;;;;;17.52;6.22;;;;;;;14.14;63.46;100362.91;143752;616;48022;-74
2021/04/06 02:30:10;;;;;;;16.92;6.22;;;;;;;14.08;63.55;100350.56;143750;605;46018;-74
2021/04/06 02:32:37;;;;;;;19.95;6.45;;;;;;;14.08;64.78;100341.84;143752;564;46018;-74
2021/04/06 02:35:07;;;;;;;9.95;6.25;;;;;;;14.17;64.97;100342.13;143754;605;49010;-74
2021/04/06 02:37:36;;;;;;;13.50;5.57;;;;;;;14.09;65.62;100335.81;143753;594;46018;-74
2021/04/06 02:40:11;;;;;;;18.73;8.07;;;;;;;14.03;66.98;100331.28;143756;621;46008;-74
2021/04/06 02:42:46;;;;;;;14.57;7.95;;;;;;;14.05;66.85;100342.66;143751;665;46019;-74
2021/04/06 02:45:16;;;;;;;13.77;7.40;;;;;;;14.08;67.10;100345.37;143751;636;50010;-75
2021/04/06 02:48:12;;;;;;;13.10;7.00;;;;;;;14.12;66.80;100355.87;143754;575;46010;-74
2021/04/06 02:50:40;;;;;;;14.98;6.60;;;;;;;14.14;66.03;100362.91;143750;614;46019;-73
2021/04/06 02:53:15;;;;;;;12.85;6.18;;;;;;;14.13;65.39;100368.97;143756;646;46018;-74
2021/04/06 02:55:42;;;;;;;13.23;6.75;;;;;;;14.23;64.50;100360.56;143755;608;46016;-75
2021/04/06 02:58:13;;;;;;;17.65;5.87;;;;;;;14.28;64.18;100356.38;143754;591;46010;-74
2021/04/06 03:00:40;;;;;;;13.62;6.40;;;;;;;14.43;64.43;100335.09;143751;575;47010;-74
2021/04/06 03:03:24;;;;;;;14.43;6.28;;;;;;;14.42;65.31;100325.50;143754;698;46018;-74
2021/04/06 03:06:05;;;;;;;16.15;6.90;;;;;;;14.39;65.49;100315.00;143753;588;48010;-74
2021/04/06 03:08:33;;;;;;;16.30;6.82;;;;;;;14.39;65.85;100315.00;143752;598;46010;-74
2021/04/06 03:11:00;;;;;;;17.58;7.20;;;;;;;14.36;65.27;100299.25;143754;573;45018;-75
2021/04/06 03:13:28;;;;;;;16.40;8.75;;;;;;;14.31;65.93;100285.19;143753;575;46016;-74
2021/04/06 03:15:57;;;;;;;19.58;8.90;;;;;;;14.18;66.35;100277.84;143751;606;49010;-74
2021/04/06 03:18:43;;;;;;;19.10;9.82;;;;;;;14.10;66.21;100267.19;143754;562;46908;-74
2021/04/06 03:21:12;;;;;;;15.55;8.60;;;;;;;14.15;66.08;100268.22;143752;588;47010;-74
2021/04/06 03:23:39;;;;;;;17.20;8.57;;;;;;;14.08;66.53;100276.66;143755;567;46010;-74
2021/04/06 03:26:07;;;;;;;15.10;7.55;;;;;;;14.08;65.95;100277.59;143756;586;46009;-74
2021/04/06 03:28:39;;;;;;;19.27;8.50;;;;;;;14.07;66.37;100290.56;143754;568;46010;-74
2021/04/06 03:31:13;;;;;;;19.40;9.35;;;;;;;14.00;66.72;100305.13;143752;583;47010;-74
2021/04/06 03:33:42;;;;;;;15.83;8.30;;;;;;;14.03;66.57;100306.94;143752;733;46018;-74
2021/04/06 03:36:18;;;;;;;14.52;7.60;;;;;;;14.08;65.77;100316.69;143754;568;48010;-74
2021/04/06 03:38:45;;;;;;;17.15;8.65;;;;;;;13.97;66.47;100309.38;143753;630;46022;-74
2021/04/06 03:41:12;;;;;;;21.50;9.48;;;;;;;13.93;66.61;100302.31;143753;564;46018;-76
2021/04/06 03:43:41;;;;;;;15.98;8.35;;;;;;;13.88;67.08;100294.31;143752;568;46030;-74
2021/04/06 03:46:08;;;;;;;18.30;8.10;;;;;;;13.94;67.02;100299.72;143755;655;48010;-74
2021/04/06 03:48:38;;;;;;;15.20;8.43;;;;;;;13.94;66.61;100306.66;143752;576;46010;-74
2021/04/06 03:51:29;;;;;;;15.60;8.02;;;;;;;14.12;66.49;100306.34;143752;563;46018;-75
2021/04/06 03:53:57;;;;;;;15.98;8.00;;;;;;;14.07;66.23;100301.87;143755;587;46016;-74
2021/04/06 03:56:33;;;;;;;11.65;7.28;;;;;;;14.05;66.19;100293.12;143756;586;46019;-74
2021/04/06 03:59:02;;;;;;;18.90;8.15;;;;;;;14.06;66.17;100289.69;143752;645;46023;-75
2021/04/06 04:01:29;;;;;;;19.30;8.85;;;;;;;13.99;66.22;100271.22;143752;586;46008;-74
2021/04/06 04:03:57;;;;;;;21.17;8.30;;;;;;;13.93;66.34;100268.41;143754;569;46012;-75
2021/04/06 04:06:29;;;;;;;18.37;8.57;;;;;;;14.01;66.71;100259.09;143756;568;46018;-74
2021/04/06 04:08:56;;;;;;;12.77;7.53;;;;;;;13.97;66.38;100271.16;143751;623;48022;-76
2021/04/06 04:11:24;;;;;;;19.00;8.75;;;;;;;13.92;66.60;100283.16;143752;595;47010;-74
2021/04/06 04:13:51;;;;;;;18.95;8.27;;;;;;;14.02;66.58;100271.31;143754;572;45018;-74
2021/04/06 04:16:18;;;;;;;15.07;8.00;;;;;;;14.03;66.84;100260.91;143754;614;46008;-75
2021/04/06 04:18:45;;;;;;;17.77;8.93;;;;;;;14.01;66.58;100259.09;143753;564;46011;-75
2021/04/06 04:21:12;;;;;;;21.65;9.40;;;;;;;13.96;65.74;100255.47;143753;604;46008;-75
2021/04/06 04:23:40;;;;;;;18.15;8.45;;;;;;;13.94;66.37;100257.16;143753;634;46010;-74
2021/04/06 04:26:08;;;;;;;14.60;8.35;;;;;;;14.04;65.76;100267.87;143755;590;46008;-75
2021/04/06 04:28:35;;;;;;;16.42;9.02;;;;;;;13.89;66.56;100270.03;143748;591;48023;-74
2021/04/06 04:31:11;;;;;;;21.52;10.77;;;;;;;13.88;66.66;100263.06;143749;569;46018;-75
2021/04/06 04:33:39;;;;;;;16.37;8.93;;;;;;;13.91;67.09;100280.50;143751;569;46008;-75
2021/04/06 04:36:06;;;;;;;24.42;9.63;;;;;;;13.82;66.21;100281.97;143751;563;46021;-74
2021/04/06 04:38:34;;;;;;;22.98;8.55;;;;;;;13.88;66.93;100285.63;143751;599;46010;-74
2021/04/06 04:41:01;;;;;;;15.40;8.50;;;;;;;13.90;66.66;100302.22;143752;606;47010;-75
2021/04/06 04:43:28;;;;;;;17.77;10.30;;;;;;;13.84;66.96;100319.41;143753;635;45023;-74
2021/04/06 04:45:55;;;;;;;21.52;11.07;;;;;;;13.83;66.32;100341.09;143752;565;46008;-77
2021/04/06 04:48:22;;;;;;;22.35;10.65;;;;;;;13.80;66.46;100363.53;143754;568;46010;-75
2021/04/06 04:50:48;;;;;;;21.48;10.48;;;;;;;13.88;67.01;100375.13;143750;568;46018;-75
2021/04/06 04:53:16;;;;;;;22.40;10.32;;;;;;;13.83;66.52;100363.66;143748;629;47008;-75
2021/04/06 04:55:43;;;;;;;23.58;11.40;;;;;;;13.93;66.75;100337.06;143753;626;49012;-74
2021/04/06 04:58:11;;;;;;;29.55;11.05;;;;;;;13.97;66.73;100325.00;143750;582;46032;-76
2021/04/06 05:00:37;;;;;;;26.45;14.60;;;;;;;13.96;67.62;100336.28;143751;574;46018;-75
2021/04/06 05:03:05;;;;;;;39.72;17.02;;;;;;;13.94;67.67;100322.31;143751;618;46010;-75
2021/04/06 05:05:32;;;;;;;33.83;17.70;;;;;;;13.80;68.45;100311.44;143754;562;46016;-75
2021/04/06 05:07:59;;;;;;;30.70;16.45;;;;;;;13.88;68.57;100294.31;143748;568;47020;-75
2021/04/06 05:10:26;;;;;;;29.35;16.70;;;;;;;13.89;67.84;100277.84;143752;595;46008;-75
2021/04/06 05:12:53;;;;;;;31.10;15.00;;;;;;;13.78;67.78;100255.78;143753;586;46010;-77
2021/04/06 05:15:20;;;;;;;30.20;15.05;;;;;;;13.84;68.05;100246.44;143753;575;46010;-75
2021/04/06 05:17:47;;;;;;;33.30;15.45;;;;;;;13.92;67.83;100223.19;143750;586;46022;-75
2021/04/06 05:20:15;;;;;;;28.17;15.63;;;;;;;13.92;68.08;100207.56;143750;597;47010;-75
2021/04/06 05:22:42;;;;;;;31.12;16.80;;;;;;;13.94;67.75;100186.78;143752;576;46026;-75
2021/04/06 05:25:09;;;;;;;32.40;16.67;;;;;;;13.93;67.64;100183.28;143752;573;49010;-75
2021/04/06 05:27:36;;;;;;;33.67;16.70;;;;;;;13.93;67.03;100195.44;143752;606;46023;-74
2021/04/06 05:30:05;;;;;;;31.67;14.90;;;;;;;13.84;67.08;100186.50;143752;604;46008;-75
2021/04/06 05:32:32;;;;;;;24.55;13.32;;;;;;;13.80;66.81;100145.56;143752;583;46012;-75
2021/04/06 05:34:59;;;;;;;24.27;11.85;;;;;;;13.82;66.45;100123.03;143755;627;46008;-75
2021/04/06 05:37:26;;;;;;;20.02;11.07;;;;;;;13.82;66.37;100122.13;143751;676;46010;-75
2021/04/06 05:39:53;;;;;;;22.33;11.32;;;;;;;13.94;65.93;100134.66;143749;600;47010;-74
2021/04/06 05:42:21;;;;;;;28.77;14.02;;;;;;;13.98;65.76;100147.78;143751;592;46008;-75
2021/04/06 05:44:49;;;;;;;31.30;13.82;;;;;;;13.93;65.85;100151.12;143753;587;48010;-75
2021/04/06 05:47:44;;;;;;;38.35;16.20;;;;;;;13.98;65.90;100144.31;143748;562;48022;-74
2021/04/06 05:50:11;;;;;;;26.58;16.48;;;;;;;14.02;65.54;100138.34;143751;585;46008;-74
2021/04/06 05:52:39;;;;;;;38.08;17.83;;;;;;;14.04;65.24;100131.44;143752;623;46010;-74
2021/04/06 05:55:07;;;;;;;32.17;17.08;;;;;;;14.04;66.19;100147.09;143750;595;46019;-77
2021/04/06 05:57:35;;;;;;;53.03;16.67;;;;;;;14.14;67.29;100158.66;143745;709;48021;-75
2021/04/06 06:00:04;;;;;;;37.95;16.10;;;;;;;14.10;67.17;100175.94;143749;569;47010;-75
2021/04/06 06:02:31;;;;;;;28.35;16.30;;;;;;;14.06;67.26;100192.34;143751;741;46008;-75
2021/04/06 06:05:00;;;;;;;27.98;14.87;;;;;;;14.10;66.75;100207.22;143754;591;46010;-75
2021/04/06 06:07:27;;;;;;;26.50;16.85;;;;;;;14.11;67.99;100206.37;143748;567;48022;-75
2021/04/06 06:09:54;;;;;;;40.30;17.55;;;;;;;14.02;68.45;100206.13;143750;625;46018;-74
2021/04/06 06:12:21;;;;;;;31.87;18.02;;;;;;;13.97;68.45;100185.13;143752;563;46010;-76
2021/04/06 06:14:53;;;;;;;29.25;17.67;;;;;;;14.07;68.37;100197.59;143754;567;47010;-75
2021/04/06 06:17:25;;;;;;;34.05;17.60;;;;;;;14.12;68.09;100215.97;143748;627;46020;-76
2021/04/06 06:19:55;;;;;;;33.67;16.33;;;;;;;14.06;67.63;100224.50;143751;567;46010;-75
2021/04/06 06:22:28;;;;;;;30.95;15.50;;;;;;;14.13;66.93;100230.78;143750;649;46018;-75
2021/04/06 06:25:20;;;;;;;25.42;15.63;;;;;;;14.10;66.76;100222.84;143753;654;48010;-75
2021/04/06 06:27:48;;;;;;;36.25;15.65;;;;;;;14.10;67.22;100194.19;143747;562;48021;-75
2021/04/06 06:30:35;;;;;;;30.02;16.98;;;;;;;14.16;67.15;100163.06;143748;573;46018;-75
2021/04/06 06:33:26;;;;;;;30.12;16.52;;;;;;;14.20;67.58;100208.34;143751;678;46008;-75
2021/04/06 06:35:55;;;;;;;30.98;17.83;;;;;;;14.18;66.81;100226.59;143753;691;46016;-75
2021/04/06 06:38:25;;;;;;;30.05;17.45;;;;;;;14.22;66.30;100218.00;143753;596;46010;-74
2021/04/06 06:41:08;;;;;;;30.67;17.60;;;;;;;14.27;66.43;100213.81;143748;698;46019;-75
2021/04/06 06:43:36;;;;;;;35.17;17.45;;;;;;;14.34;66.66;100178.34;143748;584;47010;-75
2021/04/06 06:46:03;;;;;;;33.33;17.90;;;;;;;14.30;66.78;100177.38;143750;564;47010;-75
2021/04/06 06:48:34;;;;;;;40.30;20.23;;;;;;;14.32;66.45;100147.00;143750;619;46020;-75
2021/04/06 06:51:10;;;;;;;32.25;18.50;;;;;;;14.26;66.74;100102.50;143751;584;46010;-76
2021/04/06 06:53:41;;;;;;;37.90;20.25;;;;;;;14.17;66.97;100112.69;143751;577;46012;-75
2021/04/06 06:56:10;;;;;;;41.90;22.60;;;;;;;14.21;67.17;100126.72;143752;564;49011;-75
2021/04/06 06:58:40;;;;;;;29.25;20.55;;;;;;;14.20;67.44;100136.22;143748;579;47020;-75
2021/04/06 07:01:27;;;;;;;35.60;21.60;;;;;;;14.19;67.08;100173.59;143753;584;46008;-75
2021/04/06 07:04:12;;;;;;;32.58;18.33;;;;;;;14.22;66.79;100163.25;143751;574;46010;-75
2021/04/06 07:06:41;;;;;;;28.27;17.85;;;;;;;14.11;66.67;100135.97;143754;570;46010;-74
2021/04/06 07:09:30;;;;;;;29.77;17.80;;;;;;;14.15;66.73;100098.75;143747;653;46010;-75
2021/04/06 07:12:00;;;;;;;54.33;38.53;;;;;;;14.12;67.36;100100.38;143751;592;46008;-75
2021/04/06 07:14:28;;;;;;;47.45;29.98;;;;;;;14.19;66.79;100123.16;143754;562;46008;-75
2021/04/06 07:16:57;;;;;;;44.85;28.67;;;;;;;14.26;66.40;100143.34;143752;627;48010;-75
2021/04/06 07:19:24;;;;;;;32.75;20.65;;;;;;;14.30;66.25;100164.34;143750;738;46018;-75
2021/04/06 07:21:56;;;;;;;26.05;16.80;;;;;;;14.28;65.54;100139.94;143751;686;45028;-75
2021/04/06 07:24:35;;;;;;;32.72;16.05;;;;;;;14.38;65.46;100080.19;143749;568;46018;-75
2021/04/06 07:27:07;;;;;;;29.20;16.62;;;;;;;14.25;66.01;100051.19;143751;589;46021;-76
2021/04/06 07:29:35;;;;;;;35.42;17.73;;;;;;;14.24;65.94;100106.81;143747;583;48020;-75
2021/04/06 07:32:03;;;;;;;29.35;17.30;;;;;;;14.29;66.15;100146.91;143748;572;46018;-74
2021/04/06 07:34:30;;;;;;;28.75;16.58;;;;;;;14.32;65.94;100147.00;143751;605;46010;-75
2021/04/06 07:37:03;;;;;;;33.53;20.65;;;;;;;14.22;66.93;100144.97;143749;572;48010;-74
2021/04/06 07:39:31;;;;;;;33.03;20.50;;;;;;;14.16;67.76;100160.47;143751;630;46012;-74
2021/04/06 07:41:59;;;;;;;34.95;22.25;;;;;;;14.05;68.56;100168.00;143750;563;46010;-75
2021/04/06 07:44:26;;;;;;;36.58;22.35;;;;;;;13.99;68.63;100153.91;143753;583;46018;-74
2021/04/06 07:46:53;;;;;;;37.42;23.80;;;;;;;13.71;69.62;100178.28;143752;581;46020;-76
2021/04/06 07:49:40;;;;;;;38.20;21.95;;;;;;;13.83;69.54;100200.38;143750;584;48023;-74
2021/04/06 07:52:18;;;;;;;34.03;24.30;;;;;;;13.63;70.10;100188.47;143749;581;46018;-75
2021/04/06 07:54:48;;;;;;;35.92;22.95;;;;;;;13.66;70.37;100182.47;143751;619;46016;-78
2021/04/06 07:57:15;;;;;;;37.65;23.98;;;;;;;13.71;69.72;100197.41;143752;592;46018;-76
2021/04/06 07:59:48;;;;;;;34.53;22.10;;;;;;;13.70;70.20;100182.59;143751;583;46010;-76
2021/04/06 08:02:26;;;;;;;41.10;24.90;;;;;;;13.75;70.60;100182.75;143752;586;46008;-77
2021/04/06 08:04:58;;;;;;;36.92;21.50;;;;;;;13.68;71.23;100173.00;143751;574;46010;-75
2021/04/06 08:07:33;;;;;;;37.75;24.08;;;;;;;13.63;71.45;100167.62;143751;586;49006;-76
2021/04/06 08:10:03;;;;;;;46.25;22.33;;;;;;;13.77;72.29;100173.22;143750;564;46010;-77
2021/04/06 08:12:35;;;;;;;34.45;22.45;;;;;;;13.61;71.80;100162.37;143751;579;46018;-78
2021/04/06 08:15:21;;;;;;;40.65;20.80;;;;;;;13.65;72.42;100152.06;143750;588;46020;-76
2021/04/06 08:17:59;;;;;;;36.75;21.62;;;;;;;13.68;72.65;100124.38;143750;591;47011;-76
2021/04/06 08:20:40;;;;;;;29.87;20.02;;;;;;;13.68;72.84;100124.38;143749;568;46020;-76
2021/04/06 08:23:14;;;;;;;39.47;21.62;;;;;;;13.72;73.28;100104.50;143750;638;46018;-76
2021/04/06 08:25:46;;;;;;;37.13;22.10;;;;;;;13.68;73.65;100090.50;143752;655;46019;-76
2021/04/06 08:28:30;;;;;;;37.50;22.58;;;;;;;13.78;74.76;100105.53;143753;588;47016;-76
2021/04/06 08:31:35;;;;;;;34.53;19.77;;;;;;;13.85;73.33;100091.84;143752;578;46019;-75
2021/04/06 08:34:26;;;;;;;38.03;19.80;;;;;;;13.85;72.42;100085.75;143749;571;46018;-75
2021/04/06 08:37:10;;;;;;;27.37;18.30;;;;;;;13.84;72.91;100084.00;143753;597;46016;-76
2021/04/06 08:39:38;;;;;;;34.95;18.83;;;;;;;13.82;72.59;100080.44;143753;569;46008;-78
2021/04/06 08:42:07;;;;;;;34.35;17.25;;;;;;;13.89;72.48;100076.28;143750;640;46023;-75
2021/04/06 08:44:35;;;;;;;28.85;18.20;;;;;;;14.00;72.32;100080.06;143750;593;46018;-77
2021/04/06 08:47:04;;;;;;;30.65;20.25;;;;;;;14.01;73.19;100082.72;143751;576;46011;-77
2021/04/06 08:49:31;;;;;;;33.58;18.58;;;;;;;14.05;72.87;100084.59;143752;562;48010;-77
2021/04/06 08:52:00;;;;;;;36.50;17.92;;;;;;;14.03;72.18;100083.66;143753;569;46010;-77
2021/04/06 08:54:32;;;;;;;29.98;18.27;;;;;;;14.05;72.47;100076.75;143751;562;46008;-76
2021/04/06 08:57:05;;;;;;;27.65;16.20;;;;;;;14.07;71.86;100063.75;143753;562;47010;-76
2021/04/06 08:59:39;;;;;;;25.70;15.45;;;;;;;14.12;71.72;100066.50;143755;590;46010;-76
2021/04/06 09:02:09;;;;;;;25.02;14.75;;;;;;;14.19;71.73;100061.47;143749;620;48022;-75
2021/04/06 09:04:44;;;;;;;28.40;15.98;;;;;;;14.21;71.42;100057.19;143750;581;46010;-76
2021/04/06 09:07:28;;;;;;;27.83;16.33;;;;;;;14.39;71.43;100050.66;143747;623;46018;-75
2021/04/06 09:10:13;;;;;;;42.55;17.35;;;;;;;14.46;71.64;100053.47;143754;600;46016;-76
2021/04/06 09:12:42;;;;;;;18.25;12.95;;;;;;;14.48;69.99;100053.50;143750;579;46022;-75
2021/04/06 09:15:11;;;;;;;18.75;13.52;;;;;;;14.53;69.22;100046.69;143750;591;46018;-75
2021/04/06 09:17:40;;;;;;;27.13;13.43;;;;;;;14.64;69.57;100045.25;143751;622;46010;-75
2021/04/06 09:20:14;;;;;;;21.15;11.93;;;;;;;14.77;68.70;100041.19;143753;648;48010;-75
2021/04/06 09:22:44;;;;;;;23.30;13.32;;;;;;;14.74;68.46;100039.38;143752;660;46013;-75
2021/04/06 09:25:17;;;;;;;17.58;13.18;;;;;;;14.85;68.72;100038.75;143751;603;46011;-77
2021/04/06 09:27:59;;;;;;;23.95;13.02;;;;;;;14.88;68.34;100036.22;143751;563;46010;-75
2021/04/06 09:30:32;;;;;;;23.23;12.55;;;;;;;14.81;66.85;100032.59;143748;587;46020;-76
2021/04/06 09:33:20;;;;;;;18.20;12.23;;;;;;;14.99;67.07;100033.00;143752;580;46010;-78
2021/04/06 09:35:53;;;;;;;25.00;14.18;;;;;;;15.04;68.05;100030.47;143748;627;46018;-75
2021/04/06 09:38:22;;;;;;;22.48;11.93;;;;;;;15.09;67.03;100022.75;143751;637;46031;-75
2021/04/06 09:40:50;;;;;;;18.80;11.93;;;;;;;15.28;67.22;100011.84;143754;708;46016;-76
2021/04/06 09:43:18;;;;;;;20.27;13.43;;;;;;;15.17;66.67;100006.41;143750;582;48022;-76
2021/04/06 09:45:48;;;;;;;24.40;14.60;;;;;;;15.27;65.64;100009.22;143750;574;46021;-77
2021/04/06 09:48:16;;;;;;;20.42;13.18;;;;;;;15.43;65.63;99998.22;143753;657;46010;-76
2021/04/06 09:51:00;;;;;;;18.92;13.85;;;;;;;15.65;66.19;99984.72;143755;568;46010;-75
2021/04/06 09:53:27;;;;;;;20.75;13.27;;;;;;;15.67;64.79;99974.34;143749;588;47020;-73
2021/04/06 09:55:59;;;;;;;19.15;12.60;;;;;;;15.77;63.61;99981.50;143750;571;46019;-73
2021/04/06 09:58:28;;;;;;;17.83;14.18;;;;;;;15.86;65.07;99979.03;143752;658;46010;-73
2021/04/06 10:00:55;;;;;;;18.62;12.60;;;;;;;15.77;62.44;99980.63;143752;588;46018;-75
2021/04/06 10:03:25;;;;;;;23.83;13.30;;;;;;;15.75;63.18;99972.72;143749;580;48023;-74
2021/04/06 10:06:13;;;;;;;29.58;13.85;;;;;;;15.72;63.83;99984.88;143747;573;46018;-73
2021/04/06 10:08:41;;;;;;;31.45;14.38;;;;;;;15.59;63.55;99991.56;143752;578;46010;-75
2021/04/06 10:11:08;;;;;;;23.23;13.43;;;;;;;15.50;64.58;99994.88;143754;667;46008;-76
2021/04/06 10:13:37;;;;;;;22.75;13.13;;;;;;;15.32;64.43;99981.44;143747;668;48022;-70
2021/04/06 10:16:13;;;;;;;20.33;11.07;;;;;;;15.15;64.44;99982.00;143752;631;46018;-71
2021/04/06 10:18:42;;;;;;;20.83;10.93;;;;;;;15.26;64.09;99971.75;143752;632;46008;-71
2021/04/06 10:21:26;;;;;;;15.55;10.95;;;;;;;15.46;63.61;99959.97;143751;575;48012;-73
2021/04/06 10:24:06;;;;;;;18.12;10.15;;;;;;;15.70;63.35;99946.53;143753;588;45022;-74
2021/04/06 10:26:33;;;;;;;12.02;8.38;;;;;;;15.99;63.20;99947.87;143750;566;46018;-73
2021/04/06 10:29:09;;;;;;;18.60;9.52;;;;;;;16.15;63.88;99944.66;143752;573;46018;-73
2021/04/06 10:32:05;;;;;;;16.77;9.88;;;;;;;16.33;61.97;99941.47;143754;575;46008;-74
2021/04/06 10:34:33;;;;;;;17.05;11.65;;;;;;;16.46;61.44;99935.56;143747;635;48020;-73
2021/04/06 10:37:09;;;;;;;28.55;13.55;;;;;;;16.60;62.01;99933.13;143751;576;46018;-73
2021/04/06 10:39:41;;;;;;;31.65;20.30;;;;;;;16.44;61.05;99925.91;143746;574;47010;-73
2021/04/06 10:42:11;;;;;;;26.87;17.85;;;;;;;16.46;61.62;99916.38;143752;568;46018;-73
2021/04/06 10:44:40;;;;;;;27.27;18.02;;;;;;;16.29;62.14;99919.63;143752;589;46010;-73
2021/04/06 10:47:07;;;;;;;24.75;18.15;;;;;;;16.19;61.61;99914.19;143752;553;47011;-74
2021/04/06 10:49:34;;;;;;;25.12;17.48;;;;;;;16.07;62.46;99926.22;143752;584;46018;-75
2021/04/06 10:52:10;;;;;;;30.27;19.15;;;;;;;15.64;63.15;99922.88;143755;602;47006;-72
2021/04/06 10:54:37;;;;;;;30.08;20.37;;;;;;;15.48;64.10;99924.31;143748;620;47022;-72
2021/04/06 10:57:05;;;;;;;28.17;20.70;;;;;;;15.28;64.73;99914.34;143753;589;46010;-73
2021/04/06 10:59:35;;;;;;;26.83;19.02;;;;;;;15.29;64.59;99905.62;143751;593;47010;-73
2021/04/06 11:02:03;;;;;;;29.08;19.73;;;;;;;15.19;64.96;99902.84;143754;593;48006;-73
2021/04/06 11:04:38;;;;;;;26.58;19.48;;;;;;;15.01;64.89;99898.16;143755;581;46010;-73
2021/04/06 11:07:09;;;;;;;28.25;20.83;;;;;;;15.01;65.60;99897.25;143750;681;46018;-73
2021/04/06 11:09:46;;;;;;;30.12;20.05;;;;;;;15.08;64.99;99893.94;143748;642;46019;-74
2021/04/06 11:12:17;;;;;;;24.92;18.83;;;;;;;15.13;65.38;99887.06;143753;611;46008;-72
2021/04/06 11:14:46;;;;;;;28.02;19.58;;;;;;;15.10;65.07;99876.56;143749;575;46020;-74
2021/04/06 11:17:13;;;;;;;25.33;19.27;;;;;;;15.06;65.71;99874.75;143748;564;48011;-72
2021/04/06 11:19:43;;;;;;;30.40;21.30;;;;;;;15.03;65.21;99874.69;143753;615;46016;-72
2021/04/06 11:22:12;;;;;;;35.03;26.23;;;;;;;14.96;65.40;99871.09;143750;577;46018;-72
2021/04/06 11:24:40;;;;;;;34.70;26.35;;;;;;;15.04;65.62;99866.00;143743;576;48023;-73
2021/04/06 11:27:09;;;;;;;37.60;24.55;;;;;;;14.80;66.15;99858.59;143749;587;46018;-72
2021/04/06 11:29:38;;;;;;;28.05;22.48;;;;;;;14.79;66.06;99864.63;143753;595;46012;-73
2021/04/06 11:32:08;;;;;;;30.33;20.00;;;;;;;14.80;66.32;99863.81;143753;576;46021;-73
2021/04/06 11:34:43;;;;;;;27.42;20.48;;;;;;;14.87;66.43;99857.84;143749;588;46018;-73
2021/04/06 11:37:12;;;;;;;28.40;18.55;;;;;;;14.96;66.34;99857.16;143753;615;46008;-73